sensor_id;sensor_type;location;lat;lon;timestamp;P1;durP1;ratioP1;P2;durP2;ratioP2
9675;SDS011;4876;42.656;23.292;2022-07-23T00:00:06;8.77;;;4.72;;
9675;SDS011;4876;42.656;23.292;2022-07-23T00:02:34;10.07;;;4.30;;
9675;SDS011;4876;42.656;23.292;2022-07-23T00:05:01;14.20;;;4.97;;
9675;SDS011;4876;42.656;23.292;2022-07-23T00:07:29;6.18;;;4.57;;
9675;SDS011;4876;42.656;23.292;2022-07-23T00:09:57;6.70;;;4.13;;
9675;SDS011;4876;42.656;23.292;2022-07-23T00:12:24;9.88;;;5.00;;
9675;SDS011;4876;42.656;23.292;2022-07-23T00:14:51;9.13;;;4.95;;
9675;SDS011;4876;42.656;23.292;2022-07-23T00:17:18;7.93;;;4.95;;
9675;SDS011;4876;42.656;23.292;2022-07-23T00:19:44;6.35;;;5.43;;
9675;SDS011;4876;42.656;23.292;2022-07-23T00:22:11;8.10;;;5.40;;
9675;SDS011;4876;42.656;23.292;2022-07-23T00:24:38;9.83;;;6.13;;
9675;SDS011;4876;42.656;23.292;2022-07-23T00:27:07;9.52;;;5.57;;
9675;SDS011;4876;42.656;23.292;2022-07-23T00:29:33;10.13;;;6.15;;
9675;SDS011;4876;42.656;23.292;2022-07-23T00:32:00;9.38;;;5.88;;
9675;SDS011;4876;42.656;23.292;2022-07-23T00:34:27;10.93;;;6.07;;
9675;SDS011;4876;42.656;23.292;2022-07-23T00:36:54;9.15;;;5.68;;
9675;SDS011;4876;42.656;23.292;2022-07-23T00:39:21;8.07;;;5.57;;
9675;SDS011;4876;42.656;23.292;2022-07-23T00:41:48;10.57;;;5.53;;
9675;SDS011;4876;42.656;23.292;2022-07-23T00:44:20;11.00;;;6.20;;
9675;SDS011;4876;42.656;23.292;2022-07-23T00:46:49;10.63;;;5.80;;
9675;SDS011;4876;42.656;23.292;2022-07-23T00:49:19;11.40;;;5.83;;
9675;SDS011;4876;42.656;23.292;2022-07-23T00:51:46;6.50;;;5.67;;
9675;SDS011;4876;42.656;23.292;2022-07-23T00:54:14;11.57;;;5.97;;
9675;SDS011;4876;42.656;23.292;2022-07-23T00:56:41;10.50;;;6.03;;
9675;SDS011;4876;42.656;23.292;2022-07-23T00:59:09;7.40;;;5.93;;
9675;SDS011;4876;42.656;23.292;2022-07-23T01:01:37;10.83;;;6.30;;
9675;SDS011;4876;42.656;23.292;2022-07-23T01:04:05;6.50;;;5.70;;
9675;SDS011;4876;42.656;23.292;2022-07-23T01:06:33;15.97;;;6.40;;
9675;SDS011;4876;42.656;23.292;2022-07-23T01:09:02;12.67;;;6.40;;
9675;SDS011;4876;42.656;23.292;2022-07-23T01:11:30;15.40;;;9.40;;
9675;SDS011;4876;42.656;23.292;2022-07-23T01:13:59;9.97;;;7.80;;
9675;SDS011;4876;42.656;23.292;2022-07-23T01:16:25;10.53;;;6.10;;
9675;SDS011;4876;42.656;23.292;2022-07-23T01:18:53;14.63;;;7.53;;
9675;SDS011;4876;42.656;23.292;2022-07-23T01:21:20;12.20;;;7.70;;
9675;SDS011;4876;42.656;23.292;2022-07-23T01:23:49;13.07;;;6.87;;
9675;SDS011;4876;42.656;23.292;2022-07-23T01:26:16;10.43;;;6.10;;
9675;SDS011;4876;42.656;23.292;2022-07-23T01:28:43;9.87;;;5.93;;
9675;SDS011;4876;42.656;23.292;2022-07-23T01:31:10;8.23;;;5.47;;
9675;SDS011;4876;42.656;23.292;2022-07-23T01:33:37;10.60;;;5.30;;
9675;SDS011;4876;42.656;23.292;2022-07-23T01:36:04;11.87;;;5.87;;
9675;SDS011;4876;42.656;23.292;2022-07-23T01:38:31;12.37;;;5.40;;
9675;SDS011;4876;42.656;23.292;2022-07-23T01:40:59;12.10;;;5.73;;
9675;SDS011;4876;42.656;23.292;2022-07-23T01:43:26;11.53;;;5.37;;
9675;SDS011;4876;42.656;23.292;2022-07-23T01:45:53;12.57;;;5.60;;
9675;SDS011;4876;42.656;23.292;2022-07-23T01:48:20;6.10;;;5.00;;
9675;SDS011;4876;42.656;23.292;2022-07-23T01:50:47;10.70;;;5.53;;
9675;SDS011;4876;42.656;23.292;2022-07-23T01:53:14;14.77;;;6.60;;
9675;SDS011;4876;42.656;23.292;2022-07-23T01:55:41;12.00;;;6.33;;
9675;SDS011;4876;42.656;23.292;2022-07-23T01:58:09;10.20;;;5.47;;
9675;SDS011;4876;42.656;23.292;2022-07-23T02:00:36;13.20;;;5.73;;
9675;SDS011;4876;42.656;23.292;2022-07-23T02:03:03;9.47;;;5.57;;
9675;SDS011;4876;42.656;23.292;2022-07-23T02:05:30;12.07;;;5.73;;
9675;SDS011;4876;42.656;23.292;2022-07-23T02:07:58;16.50;;;6.63;;
9675;SDS011;4876;42.656;23.292;2022-07-23T02:10:25;12.20;;;6.33;;
9675;SDS011;4876;42.656;23.292;2022-07-23T02:12:52;7.90;;;5.77;;
9675;SDS011;4876;42.656;23.292;2022-07-23T02:15:20;21.13;;;6.27;;
9675;SDS011;4876;42.656;23.292;2022-07-23T02:17:47;10.70;;;6.63;;
9675;SDS011;4876;42.656;23.292;2022-07-23T02:20:13;13.50;;;6.10;;
9675;SDS011;4876;42.656;23.292;2022-07-23T02:22:40;9.10;;;6.00;;
9675;SDS011;4876;42.656;23.292;2022-07-23T02:25:07;7.23;;;5.57;;
9675;SDS011;4876;42.656;23.292;2022-07-23T02:27:35;10.27;;;5.43;;
9675;SDS011;4876;42.656;23.292;2022-07-23T02:30:02;11.60;;;5.63;;
9675;SDS011;4876;42.656;23.292;2022-07-23T02:32:31;11.50;;;6.93;;
9675;SDS011;4876;42.656;23.292;2022-07-23T02:34:58;14.17;;;7.33;;
9675;SDS011;4876;42.656;23.292;2022-07-23T02:37:25;8.27;;;6.17;;
9675;SDS011;4876;42.656;23.292;2022-07-23T02:39:52;8.17;;;4.90;;
9675;SDS011;4876;42.656;23.292;2022-07-23T02:42:19;13.97;;;5.27;;
9675;SDS011;4876;42.656;23.292;2022-07-23T02:44:46;12.70;;;5.90;;
9675;SDS011;4876;42.656;23.292;2022-07-23T02:47:13;8.40;;;5.13;;
9675;SDS011;4876;42.656;23.292;2022-07-23T02:49:41;7.83;;;4.53;;
9675;SDS011;4876;42.656;23.292;2022-07-23T02:52:08;9.90;;;5.70;;
9675;SDS011;4876;42.656;23.292;2022-07-23T02:54:35;10.97;;;5.63;;
9675;SDS011;4876;42.656;23.292;2022-07-23T02:57:02;16.67;;;7.67;;
9675;SDS011;4876;42.656;23.292;2022-07-23T02:59:29;28.53;;;11.90;;
9675;SDS011;4876;42.656;23.292;2022-07-23T03:01:56;21.83;;;9.73;;
9675;SDS011;4876;42.656;23.292;2022-07-23T03:04:23;24.40;;;9.07;;
9675;SDS011;4876;42.656;23.292;2022-07-23T03:06:51;14.50;;;8.37;;
9675;SDS011;4876;42.656;23.292;2022-07-23T03:09:18;16.13;;;9.50;;
9675;SDS011;4876;42.656;23.292;2022-07-23T03:11:45;14.80;;;8.00;;
9675;SDS011;4876;42.656;23.292;2022-07-23T03:14:11;22.07;;;6.77;;
9675;SDS011;4876;42.656;23.292;2022-07-23T03:16:39;15.90;;;6.97;;
9675;SDS011;4876;42.656;23.292;2022-07-23T03:19:05;8.87;;;6.27;;
9675;SDS011;4876;42.656;23.292;2022-07-23T03:21:32;10.93;;;6.30;;
9675;SDS011;4876;42.656;23.292;2022-07-23T03:24:00;18.03;;;7.90;;
9675;SDS011;4876;42.656;23.292;2022-07-23T03:26:27;8.57;;;6.33;;
9675;SDS011;4876;42.656;23.292;2022-07-23T03:28:54;9.03;;;7.00;;
9675;SDS011;4876;42.656;23.292;2022-07-23T03:31:21;10.50;;;6.87;;
9675;SDS011;4876;42.656;23.292;2022-07-23T03:33:47;8.87;;;6.13;;
9675;SDS011;4876;42.656;23.292;2022-07-23T03:36:14;11.47;;;6.70;;
9675;SDS011;4876;42.656;23.292;2022-07-23T03:38:41;8.77;;;5.93;;
9675;SDS011;4876;42.656;23.292;2022-07-23T03:41:09;10.30;;;6.20;;
9675;SDS011;4876;42.656;23.292;2022-07-23T03:43:36;8.88;;;5.80;;
9675;SDS011;4876;42.656;23.292;2022-07-23T03:46:03;11.90;;;6.07;;
9675;SDS011;4876;42.656;23.292;2022-07-23T03:48:29;10.32;;;6.15;;
9675;SDS011;4876;42.656;23.292;2022-07-23T03:50:56;10.82;;;5.93;;
9675;SDS011;4876;42.656;23.292;2022-07-23T03:53:23;10.88;;;5.55;;
9675;SDS011;4876;42.656;23.292;2022-07-23T03:55:50;7.88;;;6.28;;
9675;SDS011;4876;42.656;23.292;2022-07-23T03:58:18;9.48;;;6.05;;
9675;SDS011;4876;42.656;23.292;2022-07-23T04:00:45;10.07;;;5.45;;
9675;SDS011;4876;42.656;23.292;2022-07-23T04:03:11;16.27;;;5.72;;
9675;SDS011;4876;42.656;23.292;2022-07-23T04:05:38;9.77;;;5.82;;
9675;SDS011;4876;42.656;23.292;2022-07-23T04:08:05;11.75;;;6.05;;
9675;SDS011;4876;42.656;23.292;2022-07-23T04:10:32;13.95;;;6.13;;
9675;SDS011;4876;42.656;23.292;2022-07-23T04:12:58;9.60;;;5.95;;
9675;SDS011;4876;42.656;23.292;2022-07-23T04:15:27;25.52;;;7.28;;
9675;SDS011;4876;42.656;23.292;2022-07-23T04:17:53;11.13;;;5.45;;
9675;SDS011;4876;42.656;23.292;2022-07-23T04:20:20;15.27;;;6.50;;
9675;SDS011;4876;42.656;23.292;2022-07-23T04:22:47;9.88;;;6.07;;
9675;SDS011;4876;42.656;23.292;2022-07-23T04:25:14;15.10;;;6.80;;
9675;SDS011;4876;42.656;23.292;2022-07-23T04:27:41;9.30;;;5.50;;
9675;SDS011;4876;42.656;23.292;2022-07-23T04:30:08;6.40;;;5.53;;
9675;SDS011;4876;42.656;23.292;2022-07-23T04:32:37;11.20;;;6.28;;
9675;SDS011;4876;42.656;23.292;2022-07-23T04:35:04;15.45;;;6.43;;
9675;SDS011;4876;42.656;23.292;2022-07-23T04:37:31;20.45;;;6.35;;
9675;SDS011;4876;42.656;23.292;2022-07-23T04:39:57;14.52;;;6.38;;
9675;SDS011;4876;42.656;23.292;2022-07-23T04:42:24;8.48;;;6.07;;
9675;SDS011;4876;42.656;23.292;2022-07-23T04:44:51;11.25;;;6.43;;
9675;SDS011;4876;42.656;23.292;2022-07-23T04:47:18;10.10;;;6.72;;
9675;SDS011;4876;42.656;23.292;2022-07-23T04:49:47;12.85;;;6.65;;
9675;SDS011;4876;42.656;23.292;2022-07-23T04:52:14;13.65;;;6.55;;
9675;SDS011;4876;42.656;23.292;2022-07-23T04:54:41;9.80;;;6.65;;
9675;SDS011;4876;42.656;23.292;2022-07-23T04:57:08;11.10;;;6.78;;
9675;SDS011;4876;42.656;23.292;2022-07-23T04:59:34;14.00;;;6.28;;
9675;SDS011;4876;42.656;23.292;2022-07-23T05:02:01;11.05;;;6.07;;
9675;SDS011;4876;42.656;23.292;2022-07-23T05:04:28;13.73;;;6.78;;
9675;SDS011;4876;42.656;23.292;2022-07-23T05:06:57;7.35;;;6.22;;
9675;SDS011;4876;42.656;23.292;2022-07-23T05:09:24;12.02;;;6.95;;
9675;SDS011;4876;42.656;23.292;2022-07-23T05:11:51;11.50;;;6.72;;
9675;SDS011;4876;42.656;23.292;2022-07-23T05:14:18;11.48;;;7.07;;
9675;SDS011;4876;42.656;23.292;2022-07-23T05:16:45;16.15;;;8.20;;
9675;SDS011;4876;42.656;23.292;2022-07-23T05:19:11;14.00;;;8.32;;
9675;SDS011;4876;42.656;23.292;2022-07-23T05:21:38;15.55;;;8.40;;
9675;SDS011;4876;42.656;23.292;2022-07-23T05:24:07;27.80;;;8.18;;
9675;SDS011;4876;42.656;23.292;2022-07-23T05:26:34;14.07;;;7.97;;
9675;SDS011;4876;42.656;23.292;2022-07-23T05:29:01;18.83;;;7.93;;
9675;SDS011;4876;42.656;23.292;2022-07-23T05:31:28;10.27;;;7.40;;
9675;SDS011;4876;42.656;23.292;2022-07-23T05:33:54;15.05;;;8.10;;
9675;SDS011;4876;42.656;23.292;2022-07-23T05:36:21;12.95;;;7.55;;
9675;SDS011;4876;42.656;23.292;2022-07-23T05:38:48;13.25;;;7.45;;
9675;SDS011;4876;42.656;23.292;2022-07-23T05:41:16;15.95;;;7.40;;
9675;SDS011;4876;42.656;23.292;2022-07-23T05:43:43;11.45;;;7.55;;
9675;SDS011;4876;42.656;23.292;2022-07-23T05:46:09;12.60;;;7.70;;
9675;SDS011;4876;42.656;23.292;2022-07-23T05:48:36;13.00;;;7.82;;
9675;SDS011;4876;42.656;23.292;2022-07-23T05:51:03;16.95;;;7.65;;
9675;SDS011;4876;42.656;23.292;2022-07-23T05:53:31;17.63;;;7.43;;
9675;SDS011;4876;42.656;23.292;2022-07-23T05:55:59;10.05;;;7.65;;
9675;SDS011;4876;42.656;23.292;2022-07-23T05:58:27;15.40;;;7.13;;
9675;SDS011;4876;42.656;23.292;2022-07-23T06:00:54;15.30;;;7.22;;
9675;SDS011;4876;42.656;23.292;2022-07-23T06:03:21;17.92;;;7.50;;
9675;SDS011;4876;42.656;23.292;2022-07-23T06:05:47;13.88;;;6.93;;
9675;SDS011;4876;42.656;23.292;2022-07-23T06:08:14;16.45;;;7.25;;
9675;SDS011;4876;42.656;23.292;2022-07-23T06:10:41;34.65;;;9.18;;
9675;SDS011;4876;42.656;23.292;2022-07-23T06:13:07;14.60;;;7.50;;
9675;SDS011;4876;42.656;23.292;2022-07-23T06:15:36;12.55;;;7.43;;
9675;SDS011;4876;42.656;23.292;2022-07-23T06:18:03;10.52;;;7.07;;
9675;SDS011;4876;42.656;23.292;2022-07-23T06:20:30;11.82;;;7.38;;
9675;SDS011;4876;42.656;23.292;2022-07-23T06:22:56;13.52;;;6.93;;
9675;SDS011;4876;42.656;23.292;2022-07-23T06:25:23;10.93;;;6.60;;
9675;SDS011;4876;42.656;23.292;2022-07-23T06:27:50;12.25;;;6.93;;
9675;SDS011;4876;42.656;23.292;2022-07-23T06:30:17;8.02;;;6.85;;
9675;SDS011;4876;42.656;23.292;2022-07-23T06:32:45;9.35;;;6.90;;
9675;SDS011;4876;42.656;23.292;2022-07-23T06:35:12;14.80;;;7.22;;
9675;SDS011;4876;42.656;23.292;2022-07-23T06:37:39;18.00;;;7.30;;
9675;SDS011;4876;42.656;23.292;2022-07-23T06:40:06;10.80;;;7.22;;
9675;SDS011;4876;42.656;23.292;2022-07-23T06:42:34;10.40;;;7.15;;
9675;SDS011;4876;42.656;23.292;2022-07-23T06:45:02;12.15;;;6.53;;
9675;SDS011;4876;42.656;23.292;2022-07-23T06:47:29;12.70;;;7.45;;
9675;SDS011;4876;42.656;23.292;2022-07-23T06:49:57;10.05;;;6.95;;
9675;SDS011;4876;42.656;23.292;2022-07-23T06:52:23;15.38;;;6.88;;
9675;SDS011;4876;42.656;23.292;2022-07-23T06:54:51;13.02;;;7.00;;
9675;SDS011;4876;42.656;23.292;2022-07-23T06:57:18;13.85;;;7.00;;
9675;SDS011;4876;42.656;23.292;2022-07-23T06:59:44;22.00;;;7.15;;
9675;SDS011;4876;42.656;23.292;2022-07-23T07:02:11;15.95;;;7.20;;
9675;SDS011;4876;42.656;23.292;2022-07-23T07:04:38;13.52;;;6.97;;
9675;SDS011;4876;42.656;23.292;2022-07-23T07:07:06;12.85;;;6.60;;
9675;SDS011;4876;42.656;23.292;2022-07-23T07:09:33;12.82;;;6.45;;
9675;SDS011;4876;42.656;23.292;2022-07-23T07:12:00;14.70;;;7.55;;
9675;SDS011;4876;42.656;23.292;2022-07-23T07:14:26;12.50;;;7.10;;
9675;SDS011;4876;42.656;23.292;2022-07-23T07:16:53;12.23;;;7.32;;
9675;SDS011;4876;42.656;23.292;2022-07-23T07:19:20;10.32;;;7.15;;
9675;SDS011;4876;42.656;23.292;2022-07-23T07:21:47;7.47;;;6.63;;
9675;SDS011;4876;42.656;23.292;2022-07-23T07:24:15;10.32;;;6.95;;
9675;SDS011;4876;42.656;23.292;2022-07-23T07:26:42;9.75;;;6.93;;
9675;SDS011;4876;42.656;23.292;2022-07-23T07:29:08;12.60;;;6.88;;
9675;SDS011;4876;42.656;23.292;2022-07-23T07:31:35;13.05;;;6.53;;
9675;SDS011;4876;42.656;23.292;2022-07-23T07:34:02;11.15;;;7.47;;
9675;SDS011;4876;42.656;23.292;2022-07-23T07:36:29;10.43;;;7.28;;
9675;SDS011;4876;42.656;23.292;2022-07-23T07:38:55;14.52;;;7.10;;
9675;SDS011;4876;42.656;23.292;2022-07-23T07:41:24;11.45;;;7.13;;
9675;SDS011;4876;42.656;23.292;2022-07-23T07:43:51;13.80;;;7.07;;
9675;SDS011;4876;42.656;23.292;2022-07-23T07:46:18;14.45;;;7.10;;
9675;SDS011;4876;42.656;23.292;2022-07-23T07:48:45;12.18;;;7.30;;
9675;SDS011;4876;42.656;23.292;2022-07-23T07:51:12;21.35;;;7.68;;
9675;SDS011;4876;42.656;23.292;2022-07-23T07:53:38;12.43;;;7.78;;
9675;SDS011;4876;42.656;23.292;2022-07-23T07:56:05;15.50;;;7.68;;
9675;SDS011;4876;42.656;23.292;2022-07-23T07:58:34;15.63;;;7.30;;
9675;SDS011;4876;42.656;23.292;2022-07-23T08:01:00;16.00;;;7.15;;
9675;SDS011;4876;42.656;23.292;2022-07-23T08:03:27;10.10;;;6.88;;
9675;SDS011;4876;42.656;23.292;2022-07-23T08:05:54;16.65;;;7.63;;
9675;SDS011;4876;42.656;23.292;2022-07-23T08:08:21;13.35;;;8.00;;
9675;SDS011;4876;42.656;23.292;2022-07-23T08:10:48;12.02;;;7.53;;
9675;SDS011;4876;42.656;23.292;2022-07-23T08:13:15;14.48;;;7.47;;
9675;SDS011;4876;42.656;23.292;2022-07-23T08:15:44;12.27;;;7.60;;
9675;SDS011;4876;42.656;23.292;2022-07-23T08:18:11;18.13;;;7.57;;
9675;SDS011;4876;42.656;23.292;2022-07-23T08:20:38;15.20;;;7.82;;
9675;SDS011;4876;42.656;23.292;2022-07-23T08:23:05;16.40;;;8.10;;
9675;SDS011;4876;42.656;23.292;2022-07-23T08:25:34;16.65;;;7.28;;
9675;SDS011;4876;42.656;23.292;2022-07-23T08:28:02;17.23;;;7.30;;
9675;SDS011;4876;42.656;23.292;2022-07-23T08:30:30;19.70;;;9.15;;
9675;SDS011;4876;42.656;23.292;2022-07-23T08:32:59;9.38;;;7.38;;
9675;SDS011;4876;42.656;23.292;2022-07-23T08:35:28;13.82;;;8.02;;
9675;SDS011;4876;42.656;23.292;2022-07-23T08:37:55;16.27;;;7.97;;
9675;SDS011;4876;42.656;23.292;2022-07-23T08:40:23;16.60;;;7.85;;
9675;SDS011;4876;42.656;23.292;2022-07-23T08:42:53;14.93;;;8.45;;
9675;SDS011;4876;42.656;23.292;2022-07-23T08:45:21;11.38;;;8.00;;
9675;SDS011;4876;42.656;23.292;2022-07-23T08:47:49;14.75;;;8.15;;
9675;SDS011;4876;42.656;23.292;2022-07-23T08:50:19;11.50;;;7.60;;
9675;SDS011;4876;42.656;23.292;2022-07-23T08:52:46;9.23;;;7.15;;
9675;SDS011;4876;42.656;23.292;2022-07-23T08:55:15;12.45;;;8.05;;
9675;SDS011;4876;42.656;23.292;2022-07-23T08:57:42;14.95;;;7.88;;
9675;SDS011;4876;42.656;23.292;2022-07-23T09:00:09;13.07;;;8.10;;
9675;SDS011;4876;42.656;23.292;2022-07-23T09:02:40;12.07;;;7.47;;
9675;SDS011;4876;42.656;23.292;2022-07-23T09:05:08;12.93;;;8.10;;
9675;SDS011;4876;42.656;23.292;2022-07-23T09:07:37;15.20;;;8.65;;
9675;SDS011;4876;42.656;23.292;2022-07-23T09:10:24;11.07;;;8.20;;
9675;SDS011;4876;42.656;23.292;2022-07-23T09:12:51;12.05;;;7.97;;
9675;SDS011;4876;42.656;23.292;2022-07-23T09:15:18;16.00;;;7.93;;
9675;SDS011;4876;42.656;23.292;2022-07-23T09:17:44;12.43;;;7.45;;
9675;SDS011;4876;42.656;23.292;2022-07-23T09:20:12;15.15;;;7.70;;
9675;SDS011;4876;42.656;23.292;2022-07-23T09:22:41;18.52;;;7.90;;
9675;SDS011;4876;42.656;23.292;2022-07-23T09:25:12;13.68;;;8.13;;
9675;SDS011;4876;42.656;23.292;2022-07-23T09:30:28;13.82;;;7.65;;
9675;SDS011;4876;42.656;23.292;2022-07-23T09:33:06;12.48;;;6.97;;
9675;SDS011;4876;42.656;23.292;2022-07-23T09:35:44;12.70;;;7.88;;
9675;SDS011;4876;42.656;23.292;2022-07-23T09:38:12;10.55;;;7.07;;
9675;SDS011;4876;42.656;23.292;2022-07-23T09:40:39;12.38;;;7.07;;
9675;SDS011;4876;42.656;23.292;2022-07-23T09:43:07;13.82;;;8.13;;
9675;SDS011;4876;42.656;23.292;2022-07-23T09:45:34;10.77;;;7.63;;
9675;SDS011;4876;42.656;23.292;2022-07-23T09:48:10;20.08;;;6.72;;
9675;SDS011;4876;42.656;23.292;2022-07-23T09:50:38;11.30;;;7.15;;
9675;SDS011;4876;42.656;23.292;2022-07-23T09:53:06;7.72;;;6.32;;
9675;SDS011;4876;42.656;23.292;2022-07-23T09:55:35;11.65;;;6.50;;
9675;SDS011;4876;42.656;23.292;2022-07-23T09:58:03;17.73;;;6.63;;
9675;SDS011;4876;42.656;23.292;2022-07-23T10:00:32;17.55;;;6.70;;
9675;SDS011;4876;42.656;23.292;2022-07-23T10:02:59;11.55;;;5.90;;
9675;SDS011;4876;42.656;23.292;2022-07-23T10:05:26;17.70;;;6.72;;
9675;SDS011;4876;42.656;23.292;2022-07-23T10:07:54;11.27;;;6.18;;
9675;SDS011;4876;42.656;23.292;2022-07-23T10:10:22;13.70;;;6.50;;
9675;SDS011;4876;42.656;23.292;2022-07-23T10:12:54;8.48;;;5.78;;
9675;SDS011;4876;42.656;23.292;2022-07-23T10:15:35;10.95;;;5.82;;
9675;SDS011;4876;42.656;23.292;2022-07-23T10:18:02;11.52;;;6.30;;
9675;SDS011;4876;42.656;23.292;2022-07-23T10:20:29;9.07;;;6.15;;
9675;SDS011;4876;42.656;23.292;2022-07-23T10:22:57;12.02;;;6.45;;
9675;SDS011;4876;42.656;23.292;2022-07-23T10:25:32;12.52;;;6.43;;
9675;SDS011;4876;42.656;23.292;2022-07-23T10:28:09;14.77;;;6.13;;
9675;SDS011;4876;42.656;23.292;2022-07-23T10:30:49;13.10;;;6.20;;
9675;SDS011;4876;42.656;23.292;2022-07-23T10:33:29;16.60;;;6.43;;
9675;SDS011;4876;42.656;23.292;2022-07-23T10:36:07;8.98;;;5.45;;
9675;SDS011;4876;42.656;23.292;2022-07-23T10:38:41;9.63;;;6.10;;
9675;SDS011;4876;42.656;23.292;2022-07-23T10:41:29;11.30;;;5.75;;
9675;SDS011;4876;42.656;23.292;2022-07-23T10:44:09;10.07;;;5.50;;
9675;SDS011;4876;42.656;23.292;2022-07-23T10:49:39;10.93;;;6.82;;
9675;SDS011;4876;42.656;23.292;2022-07-23T10:52:16;12.65;;;5.78;;
9675;SDS011;4876;42.656;23.292;2022-07-23T10:54:53;11.70;;;5.97;;
9675;SDS011;4876;42.656;23.292;2022-07-23T10:57:23;8.55;;;5.10;;
9675;SDS011;4876;42.656;23.292;2022-07-23T11:02:54;16.60;;;5.20;;
9675;SDS011;4876;42.656;23.292;2022-07-23T11:05:22;13.20;;;5.45;;
9675;SDS011;4876;42.656;23.292;2022-07-23T11:10:51;19.95;;;5.90;;
9675;SDS011;4876;42.656;23.292;2022-07-23T11:13:26;10.32;;;5.30;;
9675;SDS011;4876;42.656;23.292;2022-07-23T11:19:02;10.93;;;5.07;;
9675;SDS011;4876;42.656;23.292;2022-07-23T11:21:41;10.45;;;5.20;;
9675;SDS011;4876;42.656;23.292;2022-07-23T11:24:25;14.70;;;5.85;;
9675;SDS011;4876;42.656;23.292;2022-07-23T11:26:56;14.43;;;5.20;;
9675;SDS011;4876;42.656;23.292;2022-07-23T11:29:43;16.10;;;5.90;;
9675;SDS011;4876;42.656;23.292;2022-07-23T11:35:18;13.00;;;5.38;;
9675;SDS011;4876;42.656;23.292;2022-07-23T11:37:46;17.60;;;6.05;;
9675;SDS011;4876;42.656;23.292;2022-07-23T11:40:14;15.90;;;4.95;;
9675;SDS011;4876;42.656;23.292;2022-07-23T11:42:52;17.40;;;5.28;;
9675;SDS011;4876;42.656;23.292;2022-07-23T11:45:21;10.30;;;5.03;;
9675;SDS011;4876;42.656;23.292;2022-07-23T11:47:50;12.98;;;5.65;;
9675;SDS011;4876;42.656;23.292;2022-07-23T11:50:17;17.83;;;5.10;;
9675;SDS011;4876;42.656;23.292;2022-07-23T11:52:44;13.65;;;6.00;;
9675;SDS011;4876;42.656;23.292;2022-07-23T11:55:11;14.30;;;5.40;;
9675;SDS011;4876;42.656;23.292;2022-07-23T11:57:41;20.80;;;5.97;;
9675;SDS011;4876;42.656;23.292;2022-07-23T12:00:09;14.18;;;5.18;;
9675;SDS011;4876;42.656;23.292;2022-07-23T12:02:37;14.73;;;5.40;;
9675;SDS011;4876;42.656;23.292;2022-07-23T12:05:06;12.00;;;5.70;;
9675;SDS011;4876;42.656;23.292;2022-07-23T12:07:35;8.15;;;4.45;;
9675;SDS011;4876;42.656;23.292;2022-07-23T12:10:08;15.95;;;5.03;;
9675;SDS011;4876;42.656;23.292;2022-07-23T12:12:37;10.75;;;4.45;;
9675;SDS011;4876;42.656;23.292;2022-07-23T12:15:05;16.05;;;4.93;;
9675;SDS011;4876;42.656;23.292;2022-07-23T12:17:34;18.00;;;5.30;;
9675;SDS011;4876;42.656;23.292;2022-07-23T12:20:03;12.77;;;5.03;;
9675;SDS011;4876;42.656;23.292;2022-07-23T12:22:34;12.70;;;4.70;;
9675;SDS011;4876;42.656;23.292;2022-07-23T12:25:03;14.88;;;5.60;;
9675;SDS011;4876;42.656;23.292;2022-07-23T12:27:32;12.10;;;4.60;;
9675;SDS011;4876;42.656;23.292;2022-07-23T12:30:14;13.75;;;4.30;;
9675;SDS011;4876;42.656;23.292;2022-07-23T12:32:42;14.55;;;4.90;;
9675;SDS011;4876;42.656;23.292;2022-07-23T12:35:11;11.13;;;4.50;;
9675;SDS011;4876;42.656;23.292;2022-07-23T12:37:39;14.95;;;4.90;;
9675;SDS011;4876;42.656;23.292;2022-07-23T12:40:21;19.30;;;4.80;;
9675;SDS011;4876;42.656;23.292;2022-07-23T12:42:50;22.55;;;5.25;;
9675;SDS011;4876;42.656;23.292;2022-07-23T12:45:18;12.80;;;4.97;;
9675;SDS011;4876;42.656;23.292;2022-07-23T12:47:55;16.17;;;4.97;;
9675;SDS011;4876;42.656;23.292;2022-07-23T12:50:32;8.82;;;5.32;;
9675;SDS011;4876;42.656;23.292;2022-07-23T12:53:04;12.65;;;4.88;;
9675;SDS011;4876;42.656;23.292;2022-07-23T12:55:32;13.25;;;5.07;;
9675;SDS011;4876;42.656;23.292;2022-07-23T12:58:03;15.90;;;5.45;;
9675;SDS011;4876;42.656;23.292;2022-07-23T13:00:31;15.13;;;4.88;;
9675;SDS011;4876;42.656;23.292;2022-07-23T13:02:58;12.27;;;4.63;;
9675;SDS011;4876;42.656;23.292;2022-07-23T13:05:25;15.48;;;4.50;;
9675;SDS011;4876;42.656;23.292;2022-07-23T13:07:53;12.88;;;4.22;;
9675;SDS011;4876;42.656;23.292;2022-07-23T13:10:20;15.18;;;4.57;;
9675;SDS011;4876;42.656;23.292;2022-07-23T13:12:47;11.02;;;4.43;;
9675;SDS011;4876;42.656;23.292;2022-07-23T13:15:13;16.00;;;4.72;;
9675;SDS011;4876;42.656;23.292;2022-07-23T13:17:40;19.30;;;5.25;;
9675;SDS011;4876;42.656;23.292;2022-07-23T13:20:09;15.35;;;5.60;;
9675;SDS011;4876;42.656;23.292;2022-07-23T13:22:37;15.23;;;5.15;;
9675;SDS011;4876;42.656;23.292;2022-07-23T13:25:05;16.90;;;5.68;;
9675;SDS011;4876;42.656;23.292;2022-07-23T13:27:33;14.52;;;5.18;;
9675;SDS011;4876;42.656;23.292;2022-07-23T13:30:00;14.85;;;4.80;;
9675;SDS011;4876;42.656;23.292;2022-07-23T13:32:26;11.18;;;5.10;;
9675;SDS011;4876;42.656;23.292;2022-07-23T13:34:53;10.82;;;4.43;;
9675;SDS011;4876;42.656;23.292;2022-07-23T13:37:20;9.88;;;4.68;;
9675;SDS011;4876;42.656;23.292;2022-07-23T13:39:47;11.50;;;4.72;;
9675;SDS011;4876;42.656;23.292;2022-07-23T13:42:15;10.55;;;4.78;;
9675;SDS011;4876;42.656;23.292;2022-07-23T13:44:42;16.17;;;5.15;;
9675;SDS011;4876;42.656;23.292;2022-07-23T13:47:08;8.20;;;4.43;;
9675;SDS011;4876;42.656;23.292;2022-07-23T13:49:35;12.20;;;4.70;;
9675;SDS011;4876;42.656;23.292;2022-07-23T13:52:02;10.20;;;4.25;;
9675;SDS011;4876;42.656;23.292;2022-07-23T13:54:29;11.00;;;5.03;;
9675;SDS011;4876;42.656;23.292;2022-07-23T13:56:55;11.27;;;5.38;;
9675;SDS011;4876;42.656;23.292;2022-07-23T13:59:24;16.80;;;4.88;;
9675;SDS011;4876;42.656;23.292;2022-07-23T14:01:50;21.17;;;5.15;;
9675;SDS011;4876;42.656;23.292;2022-07-23T14:04:17;11.35;;;4.40;;
9675;SDS011;4876;42.656;23.292;2022-07-23T14:06:44;9.50;;;4.60;;
9675;SDS011;4876;42.656;23.292;2022-07-23T14:09:11;14.50;;;5.05;;
9675;SDS011;4876;42.656;23.292;2022-07-23T14:11:38;11.35;;;4.80;;
9675;SDS011;4876;42.656;23.292;2022-07-23T14:14:04;14.10;;;5.28;;
9675;SDS011;4876;42.656;23.292;2022-07-23T14:16:33;8.90;;;5.10;;
9675;SDS011;4876;42.656;23.292;2022-07-23T14:19:00;12.00;;;4.97;;
9675;SDS011;4876;42.656;23.292;2022-07-23T14:21:27;14.90;;;4.80;;
9675;SDS011;4876;42.656;23.292;2022-07-23T14:23:54;10.25;;;4.47;;
9675;SDS011;4876;42.656;23.292;2022-07-23T14:26:20;14.13;;;4.97;;
9675;SDS011;4876;42.656;23.292;2022-07-23T14:28:47;12.23;;;5.00;;
9675;SDS011;4876;42.656;23.292;2022-07-23T14:31:14;9.77;;;4.53;;
9675;SDS011;4876;42.656;23.292;2022-07-23T14:33:42;18.15;;;4.88;;
9675;SDS011;4876;42.656;23.292;2022-07-23T14:36:09;16.05;;;5.03;;
9675;SDS011;4876;42.656;23.292;2022-07-23T14:38:36;10.48;;;4.70;;
9675;SDS011;4876;42.656;23.292;2022-07-23T14:41:03;18.52;;;5.65;;
9675;SDS011;4876;42.656;23.292;2022-07-23T14:43:31;14.88;;;4.60;;
9675;SDS011;4876;42.656;23.292;2022-07-23T14:45:58;11.48;;;4.75;;
9675;SDS011;4876;42.656;23.292;2022-07-23T14:48:25;10.68;;;5.07;;
9675;SDS011;4876;42.656;23.292;2022-07-23T14:50:54;15.95;;;5.28;;
9675;SDS011;4876;42.656;23.292;2022-07-23T14:53:21;8.43;;;4.75;;
9675;SDS011;4876;42.656;23.292;2022-07-23T14:55:47;9.40;;;5.00;;
9675;SDS011;4876;42.656;23.292;2022-07-23T14:58:14;14.82;;;4.70;;
9675;SDS011;4876;42.656;23.292;2022-07-23T15:00:41;18.33;;;7.28;;
9675;SDS011;4876;42.656;23.292;2022-07-23T15:03:08;12.10;;;5.47;;
9675;SDS011;4876;42.656;23.292;2022-07-23T15:05:34;14.32;;;4.95;;
9675;SDS011;4876;42.656;23.292;2022-07-23T15:08:03;11.95;;;5.18;;
9675;SDS011;4876;42.656;23.292;2022-07-23T15:10:30;10.65;;;5.60;;
9675;SDS011;4876;42.656;23.292;2022-07-23T15:12:57;9.80;;;4.85;;